Date,TemperatureHighF,TemperatureAvgF,TemperatureLowF,DewpointHighF,DewpointAvgF,DewpointLowF,HumidityHigh,HumidityAvg,HumidityLow,PressureMaxIn,PressureMinIn,WindSpeedMaxMPH,WindSpeedAvgMPH,GustSpeedMaxMPH,PrecipitationSumIn
2013-2-1,57.9,34.9,15.4,32.6,20.3,3.1,75,57,36,30.12,29.89,12,3,12,0.00
2013-2-2,58.8,38.7,27.1,33.9,22.6,15.8,83,57,27,30.12,30.01,26,6,26,0.00
2013-2-3,59.0,36.1,18.1,31.7,19.3,12.0,79,54,29,30.07,29.74,12,2,12,0.00
2013-2-4,64.4,39.8,23.0,32.7,20.2,12.0,73,48,26,29.89,29.65,13,3,13,0.00
2013-2-5,67.1,41.6,25.3,34.9,21.3,13.4,67,46,26,29.83,29.65,10,3,10,0.00
2013-2-6,67.1,45.4,34.0,36.2,25.0,19.9,60,46,30,29.83,29.68,13,3,13,0.00
2013-2-7,65.1,40.2,23.7,35.2,20.5,8.3,78,49,25,30.09,29.83,8,3,8,0.00
2013-2-8,58.1,38.3,21.0,29.9,20.1,9.7,77,51,30,30.01,29.77,32,7,32,0.00
2013-2-9,58.1,39.5,23.0,40.7,26.0,17.6,98,63,29,29.80,29.24,17,6,17,0.21
2013-2-10,39.6,29.6,23.9,39.0,27.6,19.8,98,92,80,29.92,29.21,32,11,32,0.12
2013-2-11,46.0,25.1,12.6,35.8,17.3,8.9,87,73,45,30.07,29.92,17,5,17,0.00
2013-2-12,48.6,27.1,12.9,24.1,14.8,7.7,83,62,38,29.95,29.86,15,3,15,0.04
2013-2-13,54.3,36.1,22.3,28.8,21.2,13.7,72,56,36,29.89,29.68,17,6,17,0.00
2013-2-14,40.6,31.6,23.4,28.5,20.5,13.5,80,64,42,30.21,29.80,25,6,25,0.00
2013-2-15,38.1,24.1,14.9,21.6,11.4,4.0,77,60,39,30.21,30.07,16,4,16,0.00
2013-2-16,60.4,37.2,17.1,32.3,20.9,6.6,73,54,33,30.09,29.80,20,4,20,0.00
2013-2-17,58.3,38.0,20.3,34.6,22.3,15.1,81,57,30,29.83,29.42,18,2,18,0.00
2013-2-18,43.0,34.4,22.5,25.2,18.0,9.7,66,52,37,30.03,29.53,28,10,28,0.00
2013-2-19,46.4,26.7,15.3,21.8,10.1,0.2,66,50,36,30.12,29.95,15,5,15,0.00
2013-2-20,23.5,18.1,11.3,19.0,7.1,-5.1,91,63,44,30.12,29.83,18,7,18,0.00
2013-2-21,22.6,17.6,12.6,16.3,13.4,7.6,93,84,73,29.95,29.77,16,5,16,0.00
2013-2-22,42.6,18.2,3.2,35.6,13.5,-1.6,97,82,59,29.95,29.71,10,2,10,0.00
2013-2-23,52.7,22.8,0.9,45.1,19.1,-0.2,96,87,64,29.80,29.50,8,1,8,0.00
2013-2-24,39.2,28.7,15.6,29.8,22.6,14.4,96,79,56,29.92,29.65,13,3,13,0.04
2013-2-25,47.1,31.7,15.8,28.5,22.5,10.5,88,71,44,29.98,29.80,10,3,10,0.00
2013-2-26,48.0,26.1,7.2,27.4,14.1,2.8,82,63,37,29.92,29.74,7,2,7,0.00
2013-2-27,35.6,30.6,23.7,26.7,20.7,16.9,77,67,56,30.07,29.89,19,7,22,0.00
2013-2-28,54.7,31.7,18.7,30.7,20.5,14.1,83,65,38,30.12,30.01,8,2,8,0.00